Flight Track Log - Related Links

Times and Time Zones

All times are in EDT time to prevent confusion due to time zone crossing. See the EJA613 flight status page for this flight to view local times or setup timezone preferences in your user account.

Time Position Orientation Groundspeed Altitude Reporting Facility
EDT Latitude Longitude Course Direction KTS MPH feet Rate Location/Type
Mon 03:27:28 PM 45.8578 -95.4908 175° South 269 310 7,400  Level Minneapolis Center
Mon 03:28:30 PM 45.7933 -95.5322 204° Southwest 251 289 10,700 3,194 Climbing Minneapolis Center
Mon 03:29:32 PM 45.7189 -95.5786 204° Southwest 282 325 14,000 3,145 Climbing Minneapolis Center
Mon 03:30:00 PM 45.2407 -95.3125 203° Southwest  Level Estimated
Mon 03:30:34 PM 45.6414 -95.6247 203° Southwest 297 342 17,200  Level Minneapolis Center
Mon 03:31:00 PM 45.1364 -95.2990 175° South  Level Estimated
Mon 03:31:36 PM 45.5433 -95.6844 203° Southwest 313 360 19,900  Level Minneapolis Center
Mon 03:32:00 PM 45.0321 -95.2855 175° South  Level Estimated
Mon 03:32:38 PM 45.4478 -95.7397 202° Southwest 359 413 21,800  Level Minneapolis Center
Mon 03:33:40 PM 45.3486 -95.8014 204° Southwest 384 442 23,600 1,790 Climbing Minneapolis Center
Mon 03:34:42 PM 45.2453 -95.8614 202° Southwest 397 457 25,500 1,839 Climbing Minneapolis Center
Mon 03:35:44 PM 45.1406 -95.9239 203° Southwest 408 470 27,400 1,920 Climbing Minneapolis Center
Mon 03:36:47 PM 45.0125 -95.9975 202° Southwest 411 473 29,500 1,776 Climbing Minneapolis Center
Mon 03:37:49 PM 44.9047 -96.0631 203° Southwest 420 483 31,100 1,500 Climbing Minneapolis Center
Mon 03:38:51 PM 44.7947 -96.1269 202° Southwest 426 490 32,600 1,452 Climbing Minneapolis Center
Mon 03:39:53 PM 44.6839 -96.1869 201° Southwest 426 490 34,100 1,452 Climbing Minneapolis Center
Mon 03:40:55 PM 44.5544 -96.1789 177° South 462 532 35,600 1,500 Climbing Minneapolis Center
Mon 03:41:57 PM 44.4267 -96.1611 174° South 464 534 37,200 1,488 Climbing Minneapolis Center
Mon 03:43:00 PM 44.2983 -96.1417 174° South 463 533 38,700 1,344 Climbing Minneapolis Center
Mon 03:44:02 PM 44.1569 -96.1242 175° South 460 529 40,000 629 Climbing Minneapolis Center
Mon 03:45:04 PM 44.0050 -96.1039 175° South 469 540 40,000  Level Minneapolis Center
Mon 03:46:06 PM 43.8689 -96.0836 174° South 486 559 40,000  Level Minneapolis Center
Mon 03:47:08 PM 43.7331 -96.0656 175° South 488 562 40,000  Level Minneapolis Center
Mon 03:48:10 PM 43.6006 -96.0478 174° South 484 557 40,000  Level Minneapolis Center
Mon 03:49:12 PM 43.4669 -96.0306 175° South 482 555 40,000  Level Minneapolis Center
Mon 03:50:14 PM 43.3339 -96.0128 174° South 482 555 40,000  Level Minneapolis Center
Mon 03:51:17 PM 43.1714 -95.9908 174° South 485 558 40,000  Level Minneapolis Center
Mon 03:52:19 PM 43.0358 -95.9725 174° South 486 559 40,000  Level Minneapolis Center
Mon 03:53:21 PM 42.9025 -95.9569 175° South 485 558 40,000 -97 Level Minneapolis Center
Mon 03:54:23 PM 42.7700 -95.9381 174° South 484 557 39,800 -484 Descending Minneapolis Center
Mon 03:55:25 PM 42.6378 -95.9225 175° South 483 556 39,000 -387 Descending Minneapolis Center
Mon 03:56:27 PM 42.5053 -95.9050 174° South 482 555 39,000  Level Minneapolis Center
Mon 03:57:29 PM 42.3475 -95.8844 175° South 479 551 39,000  Level Minneapolis Center
Mon 03:58:31 PM 42.2161 -95.8686 175° South 474 545 39,000 -581 Level Minneapolis Center
Mon 03:59:33 PM 42.0847 -95.8517 175° South 474 545 37,800 -960 Descending Minneapolis Center
Mon 04:00:36 PM 41.9550 -95.8339 174° South 474 545 37,000 -384 Descending Minneapolis Center
Mon 04:01:38 PM 41.8231 -95.8189 175° South 473 544 37,000  Level Minneapolis Center
Mon 04:02:40 PM 41.6872 -95.8000 174° South 481 554 37,000  Level Minneapolis Center
Mon 04:03:42 PM 41.5306 -95.7811 175° South 483 556 37,000  Level Minneapolis Center
Mon 04:04:44 PM 41.3983 -95.7653 175° South 478 550 37,000 -242 Level Minneapolis Center
Mon 04:05:46 PM 41.2664 -95.7481 174° South 478 550 36,500 -726 Descending Minneapolis Center
Mon 04:06:48 PM 41.1367 -95.7306 174° South 476 548 35,500 -1,113 Descending Minneapolis Center
Mon 04:07:50 PM 40.9933 -95.6933 169° South 479 551 34,200 -1,113 Descending Minneapolis Center
Mon 04:08:52 PM 40.8656 -95.6353 161° South 482 555 33,200 -1,200 Descending Minneapolis Center
Mon 04:09:55 PM 40.7336 -95.5783 162° South 495 570 31,700 -1,584 Descending Minneapolis Center
Mon 04:10:57 PM 40.5969 -95.5614 175° South 493 567 29,900 -2,032 Descending Minneapolis Center
Mon 04:11:59 PM 40.4347 -95.5411 175° South 491 565 27,500 -2,129 Descending Minneapolis Center
Mon 04:13:01 PM 40.3022 -95.5239 174° South 483 556 25,500 -1,935 Descending Minneapolis Center
Mon 04:14:03 PM 40.1683 -95.4986 172° South 483 556 23,500 -1,806 Descending Minneapolis Center
Mon 04:14:44 PM 40.0919 -95.4808 170° South 483 556 22,400 -1,663 Descending Kansas City Center
Mon 04:15:44 PM 39.9672 -95.4481 169° South 462 532 20,700 -1,984 Descending Kansas City Center
Mon 04:16:48 PM 39.8253 -95.3947 164° South 450 518 18,300 -2,286 Descending Kansas City Center
Mon 04:17:50 PM 39.7325 -95.2994 142° Southeast 431 496 15,900 -2,256 Descending Kansas City Center
Mon 04:18:53 PM 39.6433 -95.2056 141° Southeast 416 479 13,600 -1,839 Descending Kansas City Center
Mon 04:19:54 PM 39.5567 -95.1153 141° Southeast 402 463 12,100 -726 Descending Kansas City Center
Mon 04:20:57 PM 39.4706 -95.0261 141° Southeast 395 455 12,100  Level Kansas City Center
Mon 04:21:58 PM 39.3844 -94.9375 141° Southeast 393 452 12,100 -885 Level Kansas City Center
Mon 04:22:59 PM 39.3056 -94.8567 142° Southeast 358 412 10,300 -2,016 Descending Kansas City Center
Mon 04:24:03 PM 39.2083 -94.8403 173° South 296 341 7,900 -2,208 Descending Kansas City Center
Mon 04:25:04 PM 39.1336 -94.8619 193° South 278 320 5,700 -1,344 Descending Kansas City Center
Mon 04:26:08 PM 39.0731 -94.8281 157° South 236 272 5,100 -912 Descending Kansas City Center
Mon 04:27:09 PM 39.0336 -94.7808 137° Southeast 218 251 3,800 -1,008 Descending Kansas City Center
Mon 04:28:13 PM 39.0361 -94.7061 88° East 210 242 3,000 -336 Descending Kansas City Center
Mon 04:29:14 PM 39.0425 -94.6397 83° East 194 223 3,100 -545 Climbing Kansas City Center
Mon 04:30:14 PM 39.0817 -94.6047 35° Northeast 141 162 1,900 -919 Descending Kansas City Center
Mon 04:31:18 PM 39.1122 -94.5956 13° North 129 148 1,200 -656 Descending Kansas City Center

Login

Don't have an account? Register now (free) for customized features, flight alerts, and more!